aviador You're here:

KAHN Decoded Metar

ATHENS in GA, USA
Report Time2018-07-20 16:23:00
UTC Time2018-07-20 16:44:42
Flight Rules vfr VFR
Wind080° at 05 kt
W.Decomp.*RWY 09: 5.0 kt HW 0.6 kt LCW
RWY 02: 2.3 kt HW 4.5 kt RCW
W.Rank080° ranks 3
Current wind is below 080° avg. (6.1)
Visibility9999 m
Phenomena:N/A
Clouds:Few 022 Hf
Broken 041 Hf
Overcast 080 Hf
Expected CloudBase > 2,000 ft AGL from Temp-Dew spread
Ceiling4,100 ft
Temp27°C (ISA +14)
Dew Point22°C (74% RH)
Heat Index29.2°C
QNH1017 hPa
Density Alt2,585 ft
Elevation801 ft
Report Wrong Elevation
Raw Report
KAHN 201623Z 08005KT 10SM FEW022 BKN041 OVC080 27/22 A3004 RMK AO2
T02670222=

Extra information for KAHN:More info

Metar Taf Metar & Taf Last 4 Metars F.Rules Stats Wind Profile Meteogram Temp Stats Airport Information Weather charts Add Link Nearby VenuesMetar ALERT Operation Metar Decoded Social comments

AIRNAV info for KAHN